MST,Max TemperatureF,Mean TemperatureF,Min TemperatureF,Max Dew PointF,MeanDew PointF,Min DewpointF,Max Humidity, Mean Humidity, Min Humidity, Max Sea Level PressureIn, Mean Sea Level PressureIn, Min Sea Level PressureIn, Max VisibilityMiles, Mean VisibilityMiles, Min VisibilityMiles, Max Wind SpeedMPH, Mean Wind SpeedMPH, Max Gust SpeedMPH,PrecipitationIn, CloudCover, Events, WindDirDegrees
2012-9-1,102,94,86,68,65,62,52,38,26,29.84,29.76,29.70,10,10,10,12,4,,0.00,2,,262
2012-9-2,105,94,84,67,63,59,54,36,23,29.82,29.75,29.67,10,10,10,17,6,17,0.00,1,,245
2012-9-3,103,94,84,66,64,61,50,37,25,29.90,29.82,29.76,10,10,10,16,6,21,0.00,0,,214
2012-9-4,100,92,84,70,65,61,60,43,30,29.94,29.86,29.78,10,9,2,22,11,25,0.00,3,Thunderstorm,235
2012-9-5,101,90,79,71,69,64,74,52,31,29.90,29.81,29.70,10,10,10,18,12,22,0.00,1,,215
2012-9-6,102,92,82,71,69,64,66,50,28,29.86,29.79,29.71,10,9,3,31,14,38,0.00,1,Thunderstorm,208
2012-9-7,84,81,78,71,69,66,71,65,57,30.03,29.89,29.83,10,10,9,18,6,23,0.00,3,Rain,166
2012-9-8,97,88,78,72,66,59,78,50,33,29.91,29.85,29.79,10,10,10,15,6,18,0.00,3,,80
2012-9-9,94,86,78,67,62,56,67,44,28,29.92,29.87,29.78,10,7,1,37,15,41,0.00,3,Thunderstorm,153
2012-9-10,95,84,74,70,66,59,85,59,30,29.96,29.87,29.75,10,8,1,33,9,40,0.03,3,Rain-Thunderstorm,201
2012-9-11,84,78,72,70,67,63,88,72,51,30.12,29.89,29.85,10,10,9,13,5,,0.02,4,Rain,142
2012-9-12,94,83,72,68,65,62,82,55,35,29.95,29.88,29.80,10,10,10,15,5,18,0.00,1,,358
2012-9-13,100,88,75,66,57,49,70,38,21,29.95,29.89,29.82,10,10,10,15,6,,0.00,0,,49
2012-9-14,95,86,77,54,46,40,40,26,14,30.04,29.97,29.89,10,10,10,20,10,24,0.00,0,,75
2012-9-15,95,82,70,51,44,39,45,28,14,30.07,29.99,29.90,10,10,10,13,6,,0.00,0,,11
2012-9-16,98,83,68,50,46,42,49,28,14,30.01,29.92,29.84,10,10,10,16,6,,0.00,0,,247
2012-9-17,97,84,72,62,54,48,52,34,23,29.94,29.85,29.78,10,10,10,10,4,,0.00,0,,226
2012-9-18,100,86,72,56,52,45,55,31,15,29.93,29.87,29.80,10,10,10,9,3,,0.00,0,,33
2012-9-19,103,87,71,50,44,36,41,24,10,29.92,29.84,29.78,10,10,10,8,4,,0.00,0,,324
2012-9-20,103,89,75,49,43,37,33,23,10,30.01,29.82,29.75,10,10,4,12,6,,0.00,1,,353
2012-9-21,103,88,73,50,44,37,36,23,10,29.85,29.78,29.72,10,10,10,12,4,,0.00,0,,336
2012-9-22,105,90,74,47,43,36,35,21,9,29.87,29.79,29.74,10,10,10,9,4,,0.00,0,,349
2012-9-23,102,88,75,51,45,42,34,23,13,29.89,29.82,29.78,10,10,10,8,4,,0.00,1,,345
2012-9-24,99,87,75,50,46,42,36,25,15,29.90,29.80,29.71,10,10,10,13,3,,0.00,1,,210
2012-9-25,96,86,75,50,44,36,39,24,12,29.79,29.73,29.68,10,10,10,16,9,20,0.00,0,,219
2012-9-26,95,81,67,47,44,39,42,26,14,29.81,29.76,29.72,10,10,10,9,3,,0.00,0,,340
2012-9-27,95,81,67,52,46,44,49,28,17,29.89,29.83,29.79,10,10,10,10,4,,0.00,0,,313
2012-9-28,96,82,69,66,55,47,64,40,22,29.86,29.80,29.70,10,10,10,15,5,,0.00,0,Rain,195
2012-9-29,96,82,69,54,51,47,54,34,21,29.94,29.86,29.79,10,10,9,9,4,,0.00,0,,313
2012-9-30,101,86,71,49,43,36,38,24,10,29.92,29.83,29.75,10,10,10,13,6,,0.00,0,,296